Time;durP1;ratioP1;P1;durP2;ratioP2;P2;SDS_P1;SDS_P2;PMS_P1;PMS_P2;Temp;Humidity;BMP_temperature;BMP_pressure;BME280_temperature;BME280_humidity;BME280_pressure;Samples;Min_cycle;Max_cycle;Signal;HPM_P1;HPM_P2
2022/06/07 00:02:08;;;;;;;0.98;0.98;;;12.40;99.90;;;;;;5096615;28;20126;-76
2022/06/07 00:04:35;;;;;;;0.63;0.63;;;12.60;99.90;;;;;;5097528;28;20047;-79
2022/06/07 00:07:00;;;;;;;0.40;0.40;;;12.40;99.90;;;;;;5097926;28;20069;-75
2022/06/07 00:09:26;;;;;;;1.55;1.45;;;12.40;99.90;;;;;;5097736;28;20048;-77
2022/06/07 00:11:52;;;;;;;0.40;0.40;;;12.40;99.90;;;;;;5097137;28;20093;-81
2022/06/07 00:14:18;;;;;;;0.90;0.90;;;12.40;99.90;;;;;;5097507;28;20400;-76
2022/06/07 00:16:43;;;;;;;0.50;0.50;;;12.40;99.90;;;;;;5097269;28;20127;-76
2022/06/07 00:19:09;;;;;;;1.15;1.05;;;12.40;99.90;;;;;;5097652;28;20044;-79
2022/06/07 00:21:34;;;;;;;0.90;0.77;;;12.50;99.90;;;;;;5097355;28;20040;-79
2022/06/07 00:24:01;;;;;;;0.60;0.60;;;12.80;99.90;;;;;;5097561;28;20040;-75
2022/06/07 00:26:29;;;;;;;0.80;0.80;;;12.40;99.90;;;;;;5097490;28;20044;-77
2022/06/07 00:28:55;;;;;;;0.85;0.75;;;12.40;99.90;;;;;;5097033;28;20479;-76
2022/06/07 00:31:21;;;;;;;0.50;0.50;;;12.40;99.90;;;;;;5097132;28;20044;-80
2022/06/07 00:33:47;;;;;;;0.40;0.40;;;12.50;99.90;;;;;;5097088;28;20311;-82
2022/06/07 00:36:13;;;;;;;0.50;0.50;;;12.50;99.90;;;;;;5097292;28;20071;-77
2022/06/07 00:38:38;;;;;;;0.47;0.47;;;12.50;99.90;;;;;;5096993;28;20100;-75
2022/06/07 00:41:04;;;;;;;0.50;0.50;;;12.50;99.90;;;;;;5096811;28;20700;-76
2022/06/07 00:43:30;;;;;;;0.83;0.67;;;12.50;99.90;;;;;;5096835;28;20127;-74
2022/06/07 00:45:57;;;;;;;0.93;0.93;;;12.50;99.90;;;;;;5096866;28;20373;-76
2022/06/07 00:48:23;;;;;;;0.88;0.88;;;12.60;99.90;;;;;;5096391;28;20511;-77
2022/06/07 00:50:58;;;;;;;0.50;0.50;;;12.60;99.90;;;;;;5095430;28;20044;-78
2022/06/07 00:53:27;;;;;;;0.40;0.40;;;12.60;99.90;;;;;;5096930;28;20412;-75
2022/06/07 00:55:54;;;;;;;0.40;0.40;;;12.60;99.90;;;;;;5096087;28;20084;-75
2022/06/07 00:58:21;;;;;;;0.50;0.50;;;12.60;99.90;;;;;;5096635;28;20400;-77
2022/06/07 01:00:46;;;;;;;0.98;0.93;;;12.70;99.90;;;;;;5096502;28;20369;-76
2022/06/07 01:03:13;;;;;;;0.75;0.75;;;12.60;99.90;;;;;;5096858;28;20051;-76
2022/06/07 01:05:39;;;;;;;0.40;0.40;;;12.60;99.90;;;;;;5096428;28;20036;-74
2022/06/07 01:10:53;;;;;;;0.47;0.47;;;12.60;99.90;;;;;;5096665;28;20551;-78
2022/06/07 01:13:22;;;;;;;0.50;0.50;;;12.60;99.90;;;;;;5096241;28;20052;-76
2022/06/07 01:15:48;;;;;;;0.43;0.43;;;12.70;99.90;;;;;;5096031;28;20044;-74
2022/06/07 01:18:16;;;;;;;0.83;0.83;;;12.60;99.90;;;;;;5096017;28;20048;-75
2022/06/07 01:20:42;;;;;;;0.40;0.40;;;12.60;99.90;;;;;;5095913;28;20690;-74
2022/06/07 01:23:08;;;;;;;0.40;0.40;;;12.60;99.90;;;;;;5095924;28;20044;-77
2022/06/07 01:25:34;;;;;;;0.57;0.57;;;12.60;99.90;;;;;;5096274;28;20032;-80
2022/06/07 01:28:01;;;;;;;0.65;0.55;;;12.70;99.90;;;;;;5095905;28;20400;-76
2022/06/07 01:30:26;;;;;;;0.95;0.55;;;12.70;99.90;;;;;;5096010;28;20126;-77
2022/06/07 01:32:52;;;;;;;0.40;0.40;;;12.70;99.90;;;;;;5095886;28;20524;-74
2022/06/07 01:35:18;;;;;;;0.70;0.70;;;12.70;99.90;;;;;;5095795;28;20380;-78
2022/06/07 01:37:43;;;;;;;1.20;1.15;;;12.60;99.90;;;;;;5095853;28;20134;-75
2022/06/07 01:42:54;;;;;;;0.52;0.52;;;12.70;99.90;;;;;;5095663;28;20048;-76
2022/06/07 01:45:20;;;;;;;0.80;0.80;;;12.60;99.90;;;;;;5095795;28;20063;-75
2022/06/07 01:47:46;;;;;;;0.67;0.67;;;12.60;99.90;;;;;;5095760;28;20133;-76
2022/06/07 01:50:12;;;;;;;0.60;0.60;;;12.60;99.90;;;;;;5094905;28;20749;-78
2022/06/07 01:52:38;;;;;;;0.40;0.40;;;12.60;99.90;;;;;;5094340;28;20071;-77
2022/06/07 01:55:06;;;;;;;0.82;0.82;;;12.60;99.90;;;;;;5095639;28;20044;-75
2022/06/07 01:57:31;;;;;;;0.50;0.50;;;12.60;99.90;;;;;;5095294;28;20129;-77
2022/06/07 01:59:58;;;;;;;0.85;0.85;;;12.70;99.90;;;;;;5095777;28;20079;-80
2022/06/07 02:02:24;;;;;;;0.40;0.40;;;12.70;99.90;;;;;;5095051;28;20391;-77
2022/06/07 02:04:51;;;;;;;0.50;0.50;;;12.60;99.90;;;;;;5095165;28;20048;-74
2022/06/07 02:07:19;;;;;;;0.60;0.60;;;12.60;99.90;;;;;;5095280;28;20040;-79
2022/06/07 02:09:44;;;;;;;0.40;0.40;;;12.90;99.90;;;;;;5095087;28;20070;-79
2022/06/07 02:12:11;;;;;;;0.40;0.40;;;12.60;99.90;;;;;;5095734;28;20056;-75
2022/06/07 02:14:38;;;;;;;0.63;0.63;;;12.60;99.90;;;;;;5095314;28;20090;-76
2022/06/07 02:17:04;;;;;;;0.40;0.40;;;12.80;99.90;;;;;;5094986;28;20044;-75
2022/06/07 02:19:30;;;;;;;0.40;0.40;;;12.60;99.90;;;;;;5095092;28;20052;-75
2022/06/07 02:21:55;;;;;;;0.40;0.40;;;12.60;99.90;;;;;;5095068;28;20044;-77
2022/06/07 02:24:21;;;;;;;0.73;0.73;;;12.60;99.90;;;;;;5094972;28;20040;-79
2022/06/07 02:27:03;;;;;;;0.47;0.47;;;12.70;99.90;;;;;;5094969;28;20131;-76
2022/06/07 02:29:33;;;;;;;0.60;0.60;;;12.60;99.90;;;;;;5095198;28;20055;-73
2022/06/07 02:32:04;;;;;;;0.50;0.50;;;12.60;99.90;;;;;;5094848;28;20082;-77
2022/06/07 02:34:30;;;;;;;0.60;0.60;;;12.60;99.90;;;;;;5094817;28;20044;-76
2022/06/07 02:36:59;;;;;;;0.83;0.60;;;12.80;99.90;;;;;;5094628;28;20069;-78
2022/06/07 02:39:25;;;;;;;1.08;0.73;;;12.70;99.90;;;;;;5094838;28;20055;-77
2022/06/07 02:41:54;;;;;;;1.30;0.77;;;12.70;99.90;;;;;;5094577;28;20384;-75
2022/06/07 02:44:19;;;;;;;0.40;0.40;;;12.70;99.90;;;;;;5094872;28;20047;-75
2022/06/07 02:46:45;;;;;;;0.50;0.50;;;12.70;99.90;;;;;;5094683;28;20040;-73
2022/06/07 02:49:11;;;;;;;1.25;1.15;;;12.70;99.90;;;;;;5094524;28;20044;-74
2022/06/07 02:51:36;;;;;;;0.73;0.73;;;12.80;99.90;;;;;;5094363;28;20040;-75
2022/06/07 02:54:02;;;;;;;0.40;0.40;;;12.70;99.90;;;;;;5094409;28;20048;-75
2022/06/07 02:56:28;;;;;;;0.88;0.88;;;12.70;99.90;;;;;;5094314;28;20115;-78
2022/06/07 02:58:53;;;;;;;3.53;2.05;;;12.60;99.90;;;;;;5094521;28;20101;-77
2022/06/07 03:01:19;;;;;;;0.82;0.82;;;12.60;99.90;;;;;;5093234;28;20066;-76
2022/06/07 03:03:44;;;;;;;0.40;0.40;;;12.80;99.90;;;;;;5094604;28;20048;-79
2022/06/07 03:06:10;;;;;;;0.40;0.40;;;12.70;99.90;;;;;;5095613;28;20047;-75
2022/06/07 03:08:36;;;;;;;0.85;0.63;;;12.70;99.90;;;;;;5097907;28;20130;-77
2022/06/07 03:11:02;;;;;;;0.50;0.50;;;12.80;99.90;;;;;;5098222;28;20200;-78
2022/06/07 03:13:28;;;;;;;1.27;0.95;;;12.70;99.90;;;;;;5096484;28;20096;-74
2022/06/07 03:15:54;;;;;;;0.50;0.50;;;12.60;99.90;;;;;;5097587;28;20048;-74
2022/06/07 03:18:20;;;;;;;0.50;0.50;;;12.60;99.90;;;;;;5097259;28;20051;-74
2022/06/07 03:20:47;;;;;;;0.50;0.50;;;12.50;99.90;;;;;;5097631;28;20040;-76
2022/06/07 03:23:12;;;;;;;0.50;0.50;;;12.70;99.90;;;;;;5097419;28;20135;-73
2022/06/07 03:25:38;;;;;;;3.43;1.57;;;12.60;99.90;;;;;;5097991;28;20504;-75
2022/06/07 03:28:04;;;;;;;0.60;0.60;;;12.60;99.90;;;;;;5097153;28;20036;-75
2022/06/07 03:30:30;;;;;;;0.70;0.70;;;12.60;99.90;;;;;;5096248;28;20127;-72
2022/06/07 03:32:58;;;;;;;0.40;0.40;;;12.60;99.90;;;;;;5095743;28;20479;-72
2022/06/07 03:35:24;;;;;;;1.38;0.88;;;12.70;99.90;;;;;;5096295;28;20089;-75
2022/06/07 03:37:50;;;;;;;0.50;0.50;;;12.70;99.90;;;;;;5096382;28;20040;-75
2022/06/07 03:40:42;;;;;;;0.40;0.40;;;12.60;99.90;;;;;;5095175;28;20052;-76
2022/06/07 03:43:03;;;;;;;0.50;0.50;;;12.70;99.90;;;;;;5095403;28;20051;-78
2022/06/07 03:45:30;;;;;;;1.30;1.20;;;12.70;99.90;;;;;;5095127;28;20043;-77
2022/06/07 03:47:56;;;;;;;0.50;0.50;;;12.60;99.90;;;;;;5094703;28;20169;-77
2022/06/07 03:50:21;;;;;;;0.68;0.68;;;12.70;99.90;;;;;;5094391;28;20084;-76
2022/06/07 03:52:47;;;;;;;0.82;0.82;;;12.70;99.90;;;;;;5095571;28;20420;-76
2022/06/07 03:55:12;;;;;;;0.60;0.60;;;12.70;99.90;;;;;;5093732;28;20047;-75
2022/06/07 03:57:38;;;;;;;0.47;0.47;;;12.70;99.90;;;;;;5094158;28;20040;-72
2022/06/07 04:00:08;;;;;;;0.50;0.50;;;12.70;99.90;;;;;;5094400;28;20043;-77
2022/06/07 04:02:34;;;;;;;1.00;0.93;;;12.80;99.90;;;;;;5093569;28;20036;-74
2022/06/07 04:05:00;;;;;;;0.50;0.50;;;12.70;99.90;;;;;;5093493;28;20106;-78
2022/06/07 04:10:11;;;;;;;0.40;0.40;;;12.90;99.90;;;;;;5093348;28;20555;-74
2022/06/07 04:12:36;;;;;;;0.40;0.40;;;12.90;99.90;;;;;;5093664;28;20083;-78
2022/06/07 04:15:02;;;;;;;0.63;0.63;;;13.00;99.90;;;;;;5093445;28;20488;-77
2022/06/07 04:17:28;;;;;;;0.85;0.85;;;12.80;99.90;;;;;;5093823;28;20040;-75
2022/06/07 04:19:53;;;;;;;0.65;0.65;;;12.80;99.90;;;;;;5093390;28;20487;-78
2022/06/07 04:22:20;;;;;;;0.73;0.73;;;12.70;99.90;;;;;;5093360;28;20109;-77
2022/06/07 04:24:46;;;;;;;0.88;0.82;;;12.80;99.90;;;;;;5094701;28;20079;-73
2022/06/07 04:27:11;;;;;;;0.75;0.40;;;12.80;99.90;;;;;;5097191;28;20162;-74
2022/06/07 04:29:37;;;;;;;1.08;0.98;;;12.80;99.90;;;;;;5097099;28;20132;-74
2022/06/07 04:32:03;;;;;;;0.65;0.65;;;12.90;99.90;;;;;;5096950;28;20054;-75
2022/06/07 04:34:28;;;;;;;1.92;1.65;;;12.80;99.90;;;;;;5097344;28;20044;-76
2022/06/07 04:36:54;;;;;;;0.50;0.50;;;12.90;99.90;;;;;;5095782;28;20513;-77
2022/06/07 04:39:20;;;;;;;0.95;0.95;;;12.90;99.90;;;;;;5096938;28;20514;-77
2022/06/07 04:41:45;;;;;;;0.70;0.70;;;12.90;99.90;;;;;;5096966;28;20047;-79
2022/06/07 04:44:11;;;;;;;0.77;0.77;;;12.90;99.90;;;;;;5096720;28;20062;-75
2022/06/07 04:46:37;;;;;;;0.60;0.60;;;12.90;99.90;;;;;;5096708;28;20055;-71
2022/06/07 04:49:03;;;;;;;1.77;1.47;;;13.00;99.90;;;;;;5096872;28;20046;-74
2022/06/07 04:51:32;;;;;;;0.60;0.60;;;13.00;99.90;;;;;;5096767;28;20052;-77
2022/06/07 04:54:00;;;;;;;0.85;0.85;;;13.00;99.90;;;;;;5096836;28;20468;-75
2022/06/07 04:56:28;;;;;;;0.60;0.60;;;13.00;99.90;;;;;;5096658;28;20036;-74
2022/06/07 04:58:55;;;;;;;0.88;0.88;;;13.00;99.90;;;;;;5096407;28;20512;-78
2022/06/07 05:01:23;;;;;;;;;;;13.30;99.90;;;;;;5097404;28;20050;-78
2022/06/07 05:03:49;;;;;;;0.50;0.50;;;13.00;99.90;;;;;;5096798;28;20287;-75
2022/06/07 05:06:29;;;;;;;0.50;0.50;;;13.10;99.90;;;;;;5096525;28;20044;-74
2022/06/07 05:08:58;;;;;;;0.40;0.40;;;13.00;99.90;;;;;;5096326;28;20050;-75
2022/06/07 05:11:25;;;;;;;0.50;0.50;;;13.10;99.90;;;;;;5096253;28;20050;-76
2022/06/07 05:13:54;;;;;;;;;;;13.20;99.90;;;;;;5097019;28;20048;-74
2022/06/07 05:16:21;;;;;;;0.75;0.75;;;13.20;99.90;;;;;;5096095;28;20326;-75
2022/06/07 05:18:50;;;;;;;;;;;13.20;99.90;;;;;;5096557;28;20052;-77
2022/06/07 05:21:20;;;;;;;0.40;0.40;;;13.20;99.90;;;;;;5096088;28;19920;-77
2022/06/07 05:23:46;;;;;;;0.95;0.60;;;13.20;99.90;;;;;;5096035;28;20089;-73
2022/06/07 05:26:29;;;;;;;0.50;0.50;;;13.30;99.90;;;;;;5096004;28;20050;-73
2022/06/07 05:28:56;;;;;;;1.08;1.00;;;13.30;99.90;;;;;;5096326;28;20044;-76
2022/06/07 05:31:22;;;;;;;0.63;0.63;;;13.30;99.90;;;;;;5095596;28;20050;-74
2022/06/07 05:33:48;;;;;;;0.73;0.73;;;13.30;99.90;;;;;;5095542;28;20101;-76
2022/06/07 05:36:14;;;;;;;0.50;0.50;;;13.40;99.90;;;;;;5095221;28;20467;-75
2022/06/07 05:38:39;;;;;;;1.08;0.95;;;13.40;99.90;;;;;;5095773;28;20400;-77
2022/06/07 05:41:05;;;;;;;0.45;0.45;;;13.40;99.90;;;;;;5095578;28;20048;-77
2022/06/07 05:43:30;;;;;;;0.77;0.77;;;13.60;99.90;;;;;;5095801;28;20048;-74
2022/06/07 05:45:56;;;;;;;0.40;0.40;;;13.50;99.90;;;;;;5095602;28;20048;-75
2022/06/07 05:48:23;;;;;;;0.60;0.60;;;13.50;99.90;;;;;;5095571;28;20561;-75
2022/06/07 05:50:52;;;;;;;0.95;0.73;;;13.50;99.90;;;;;;5095442;28;20043;-75
2022/06/07 05:53:19;;;;;;;0.40;0.40;;;13.60;99.90;;;;;;5095294;28;20089;-74
2022/06/07 05:55:44;;;;;;;;;;;13.60;99.90;;;;;;5095769;28;20129;-74
2022/06/07 05:58:10;;;;;;;0.60;0.60;;;13.60;99.90;;;;;;5095232;28;20379;-73
2022/06/07 06:00:38;;;;;;;0.50;0.50;;;13.70;99.90;;;;;;5095342;28;20044;-77
2022/06/07 06:03:05;;;;;;;0.55;0.55;;;13.80;99.90;;;;;;5095262;28;20044;-76
2022/06/07 06:05:32;;;;;;;0.80;0.80;;;13.80;99.90;;;;;;5095206;28;20050;-74
2022/06/07 06:10:41;;;;;;;4.50;0.95;;;13.80;99.90;;;;;;5095063;28;20131;-72
2022/06/07 06:13:07;;;;;;;1.03;0.73;;;13.90;99.90;;;;;;5094883;28;20087;-75
2022/06/07 06:15:32;;;;;;;0.60;0.60;;;13.90;99.90;;;;;;5094904;28;20048;-74
2022/06/07 06:18:01;;;;;;;0.40;0.40;;;13.90;99.90;;;;;;5094919;28;20070;-73
2022/06/07 06:20:27;;;;;;;0.38;0.38;;;13.90;99.90;;;;;;5094857;28;20043;-76
2022/06/07 06:22:52;;;;;;;0.70;0.70;;;13.90;99.90;;;;;;5094532;28;20051;-74
2022/06/07 06:25:18;;;;;;;0.63;0.63;;;14.00;99.90;;;;;;5094763;28;20083;-73
2022/06/07 06:27:43;;;;;;;0.93;0.80;;;14.00;99.90;;;;;;5094756;28;20048;-76
2022/06/07 06:30:10;;;;;;;0.50;0.50;;;14.10;99.90;;;;;;5094910;28;20436;-76
2022/06/07 06:32:36;;;;;;;0.90;0.90;;;14.30;99.90;;;;;;5093539;28;20055;-71
2022/06/07 06:35:04;;;;;;;1.97;0.77;;;14.40;99.90;;;;;;5094613;28;20048;-74
2022/06/07 06:37:30;;;;;;;1.42;1.33;;;14.40;99.90;;;;;;5094386;28;20580;-77
2022/06/07 06:39:55;;;;;;;0.30;0.30;;;14.40;99.90;;;;;;5094545;28;20086;-78
2022/06/07 06:42:21;;;;;;;0.40;0.40;;;14.30;99.90;;;;;;5094652;28;20169;-79
2022/06/07 06:44:47;;;;;;;0.73;0.73;;;14.20;99.90;;;;;;5094486;28;20093;-78
2022/06/07 06:47:13;;;;;;;1.33;1.23;;;14.10;99.90;;;;;;5094345;28;20087;-76
2022/06/07 06:49:41;;;;;;;0.60;0.60;;;14.10;99.90;;;;;;5093612;28;20036;-76
2022/06/07 06:52:07;;;;;;;3.35;1.63;;;14.00;99.90;;;;;;5094336;28;20286;-75
2022/06/07 06:54:34;;;;;;;0.95;0.52;;;14.00;99.90;;;;;;5094720;28;20044;-76
2022/06/07 06:57:00;;;;;;;;;;;13.90;99.90;;;;;;5094913;28;20044;-73
2022/06/07 06:59:26;;;;;;;0.40;0.40;;;13.80;99.90;;;;;;5094555;28;19920;-79
2022/06/07 07:01:51;;;;;;;0.40;0.40;;;13.80;99.90;;;;;;5094177;28;20040;-76
2022/06/07 07:04:19;;;;;;;0.40;0.40;;;13.80;99.90;;;;;;5094124;28;20040;-75
2022/06/07 07:06:46;;;;;;;0.30;0.30;;;13.70;99.90;;;;;;5094641;28;20047;-73
2022/06/07 07:09:13;;;;;;;0.40;0.40;;;13.70;99.90;;;;;;5094570;28;20113;-75
2022/06/07 07:11:40;;;;;;;;;;;13.60;99.90;;;;;;5094960;28;20044;-77
2022/06/07 07:14:08;;;;;;;0.40;0.40;;;13.60;99.90;;;;;;5094473;28;19920;-75
2022/06/07 07:16:37;;;;;;;1.38;0.88;;;13.50;99.90;;;;;;5094146;28;20044;-73
2022/06/07 07:19:04;;;;;;;0.95;0.95;;;13.50;99.90;;;;;;5094257;28;20044;-79
2022/06/07 07:21:38;;;;;;;0.47;0.47;;;13.50;99.90;;;;;;5094042;28;20040;-74
2022/06/07 07:24:08;;;;;;;0.60;0.60;;;13.40;99.90;;;;;;5094038;28;20123;-77
2022/06/07 07:26:36;;;;;;;1.30;0.73;;;13.50;99.90;;;;;;5094231;28;20036;-74
2022/06/07 07:29:03;;;;;;;0.90;0.85;;;13.40;99.90;;;;;;5093971;28;20441;-76
2022/06/07 07:31:34;;;;;;;0.98;0.98;;;13.40;99.90;;;;;;5093906;28;20062;-74
2022/06/07 07:34:03;;;;;;;0.50;0.50;;;13.40;99.90;;;;;;5093911;28;20075;-76
2022/06/07 07:36:29;;;;;;;0.50;0.50;;;13.60;99.90;;;;;;5093542;28;20055;-77
2022/06/07 07:38:56;;;;;;;0.50;0.50;;;13.50;99.90;;;;;;5093700;28;20507;-74
2022/06/07 07:41:28;;;;;;;0.40;0.40;;;13.50;99.90;;;;;;5093734;28;20055;-76
2022/06/07 07:43:55;;;;;;;0.40;0.40;;;13.50;99.90;;;;;;5093762;28;20051;-74
2022/06/07 07:46:25;;;;;;;0.98;0.98;;;13.50;99.90;;;;;;5093757;28;20498;-74
2022/06/07 07:48:50;;;;;;;0.45;0.45;;;13.50;99.90;;;;;;5093972;28;20086;-77
2022/06/07 07:51:32;;;;;;;1.33;1.23;;;13.60;99.90;;;;;;5093701;28;20083;-77
2022/06/07 07:53:59;;;;;;;0.75;0.75;;;13.50;99.90;;;;;;5093884;28;20036;-77
2022/06/07 07:56:26;;;;;;;0.95;0.73;;;13.80;99.90;;;;;;5093497;28;20082;-77
2022/06/07 07:58:52;;;;;;;;;;;13.50;99.90;;;;;;5093968;28;20052;-76
2022/06/07 08:01:25;;;;;;;1.10;1.00;;;13.50;99.90;;;;;;5097282;28;19975;-77
2022/06/07 08:03:53;;;;;;;0.75;0.75;;;13.50;99.90;;;;;;5097836;28;20408;-74
2022/06/07 08:06:21;;;;;;;0.40;0.40;;;13.50;99.90;;;;;;5097483;28;20047;-75
2022/06/07 08:08:48;;;;;;;0.55;0.55;;;13.50;99.90;;;;;;5097710;28;20039;-77
2022/06/07 08:11:15;;;;;;;0.40;0.40;;;13.50;99.90;;;;;;5097476;28;20055;-73
2022/06/07 08:13:42;;;;;;;1.85;0.93;;;13.50;99.90;;;;;;5097591;28;20099;-77
2022/06/07 08:16:08;;;;;;;2.20;1.05;;;13.50;99.90;;;;;;5097661;28;20085;-76
2022/06/07 08:18:35;;;;;;;0.60;0.60;;;13.50;99.90;;;;;;5097317;28;20105;-78
2022/06/07 08:21:04;;;;;;;;;;;13.60;99.90;;;;;;5097570;28;20044;-74
2022/06/07 08:23:31;;;;;;;0.52;0.52;;;13.50;99.90;;;;;;5097176;28;19920;-75
2022/06/07 08:25:58;;;;;;;0.40;0.40;;;13.60;99.90;;;;;;5096870;28;20079;-77
2022/06/07 08:28:24;;;;;;;0.40;0.40;;;13.60;99.90;;;;;;5095864;28;20062;-79
2022/06/07 08:30:49;;;;;;;0.40;0.40;;;13.70;99.90;;;;;;5097052;28;20052;-79
2022/06/07 08:38:44;;;;;;;1.08;0.68;;;13.90;99.90;;;;;;5096798;28;20043;-76
2022/06/07 08:41:47;;;;;;;0.57;0.57;;;14.00;99.90;;;;;;5096533;28;20181;-74
2022/06/07 08:44:41;;;;;;;1.52;1.42;;;14.00;99.90;;;;;;5028941;28;20339;-76
2022/06/07 08:47:16;;;;;;;0.75;0.45;;;14.00;99.90;;;;;;5097104;28;20051;-75
2022/06/07 08:49:42;;;;;;;4.20;2.13;;;14.10;99.90;;;;;;5097169;28;20446;-78
2022/06/07 08:52:22;;;;;;;0.40;0.40;;;14.10;99.90;;;;;;5096673;28;20044;-78
2022/06/07 08:54:48;;;;;;;0.60;0.60;;;14.10;99.90;;;;;;5096781;28;20069;-76
2022/06/07 08:57:25;;;;;;;1.03;1.03;;;14.10;99.90;;;;;;5096467;28;20044;-76
2022/06/07 09:00:05;;;;;;;0.77;0.77;;;14.10;99.90;;;;;;5096638;28;20044;-74
2022/06/07 09:02:47;;;;;;;0.90;0.82;;;14.10;99.90;;;;;;5096578;28;20534;-76
2022/06/07 09:05:17;;;;;;;0.40;0.40;;;14.10;99.90;;;;;;5096425;28;20043;-78
2022/06/07 09:07:45;;;;;;;0.40;0.40;;;14.10;99.90;;;;;;5096250;28;20040;-74
2022/06/07 09:13:24;;;;;;;1.40;1.17;;;14.00;99.90;;;;;;5050877;28;20056;-74
2022/06/07 09:15:55;;;;;;;0.50;0.50;;;13.90;99.90;;;;;;5096402;28;20420;-75
2022/06/07 09:18:26;;;;;;;0.52;0.52;;;13.90;99.90;;;;;;5096259;28;20040;-76
2022/06/07 09:21:08;;;;;;;0.52;0.52;;;13.90;99.90;;;;;;5096830;28;20134;-78
2022/06/07 09:23:43;;;;;;;0.50;0.50;;;14.00;99.90;;;;;;5096224;28;20093;-74
2022/06/07 09:26:17;;;;;;;1.27;0.50;;;14.00;99.90;;;;;;5096107;28;20043;-75
2022/06/07 09:28:47;;;;;;;0.40;0.40;;;14.10;99.90;;;;;;5096162;28;20396;-77
2022/06/07 09:31:17;;;;;;;2.05;1.77;;;14.10;99.90;;;;;;5095612;28;20511;-76
2022/06/07 09:33:51;;;;;;;0.40;0.40;;;14.10;99.90;;;;;;5096081;28;20047;-76
2022/06/07 09:36:39;;;;;;;0.30;0.30;;;14.20;99.90;;;;;;5095692;28;20404;-77
2022/06/07 09:39:25;;;;;;;;;;;14.20;99.90;;;;;;5096227;28;20050;-74
2022/06/07 09:42:01;;;;;;;1.02;0.93;;;14.20;99.90;;;;;;5081413;28;19920;-77
2022/06/07 09:44:37;;;;;;;0.65;0.55;;;14.30;99.90;;;;;;5095634;28;20495;-74
2022/06/07 09:47:12;;;;;;;1.02;0.93;;;14.20;99.90;;;;;;5095656;28;20479;-73
2022/06/07 09:49:44;;;;;;;0.60;0.60;;;14.20;99.90;;;;;;5095543;28;20091;-77
2022/06/07 09:52:23;;;;;;;0.68;0.68;;;14.30;99.90;;;;;;5095528;28;20041;-77
2022/06/07 09:54:58;;;;;;;0.38;0.38;;;14.40;99.90;;;;;;5094749;28;20153;-74
2022/06/07 09:57:33;;;;;;;0.40;0.40;;;14.30;99.90;;;;;;5095327;28;20126;-76
2022/06/07 10:00:04;;;;;;;0.30;0.30;;;14.30;99.90;;;;;;5095246;28;20044;-76
2022/06/07 10:02:42;;;;;;;0.73;0.73;;;14.40;99.90;;;;;;5095240;28;20449;-75
2022/06/07 10:05:21;;;;;;;0.50;0.50;;;14.60;99.90;;;;;;5095275;28;20047;-78
2022/06/07 10:08:00;;;;;;;0.52;0.52;;;14.70;99.90;;;;;;5095260;28;20396;-76
2022/06/07 10:10:34;;;;;;;0.50;0.50;;;15.00;99.90;;;;;;5095198;28;20051;-75
2022/06/07 10:13:24;;;;;;;0.50;0.50;;;15.30;99.90;;;;;;5094932;28;20060;-76
2022/06/07 10:16:12;;;;;;;0.98;0.82;;;15.60;99.90;;;;;;5095285;28;20120;-77
2022/06/07 10:19:09;;;;;;;0.63;0.63;;;15.80;99.90;;;;;;5095232;28;20139;-73
2022/06/07 10:21:53;;;;;;;0.45;0.45;;;15.90;99.90;;;;;;5095029;28;20097;-78
2022/06/07 10:24:33;;;;;;;0.82;0.82;;;15.80;99.90;;;;;;5095014;28;20126;-72
2022/06/07 10:27:11;;;;;;;0.45;0.45;;;15.90;99.90;;;;;;5094816;28;20047;-76
2022/06/07 10:30:03;;;;;;;0.30;0.30;;;15.80;99.90;;;;;;5094836;28;20054;-76
2022/06/07 10:32:32;;;;;;;0.73;0.73;;;15.90;99.90;;;;;;5094599;28;20467;-75
2022/06/07 10:35:15;;;;;;;0.50;0.50;;;15.90;99.90;;;;;;5094774;28;20055;-73
2022/06/07 10:37:49;;;;;;;0.40;0.40;;;15.90;99.90;;;;;;5094576;28;20044;-74
2022/06/07 10:40:56;;;;;;;0.55;0.55;;;15.90;99.90;;;;;;5094898;28;20044;-78
2022/06/07 10:43:28;;;;;;;0.70;0.70;;;16.00;99.90;;;;;;5093940;28;20149;-75
2022/06/07 10:46:00;;;;;;;0.30;0.30;;;16.10;99.90;;;;;;5094617;28;20040;-79
2022/06/07 10:48:39;;;;;;;0.30;0.30;;;16.10;99.90;;;;;;5095047;28;20373;-76
2022/06/07 10:54:38;;;;;;;1.10;0.55;;;16.70;99.90;;;;;;5094327;28;20048;-78
2022/06/07 10:57:15;;;;;;;0.95;0.77;;;16.40;99.90;;;;;;5094455;28;20044;-75
2022/06/07 10:59:43;;;;;;;0.47;0.47;;;16.40;99.90;;;;;;5094267;28;20127;-77
2022/06/07 11:02:26;;;;;;;0.30;0.30;;;16.50;99.90;;;;;;5094225;28;20097;-74
2022/06/07 11:10:39;;;;;;;0.90;0.90;;;16.50;99.90;;;;;;5093245;28;20052;-77
2022/06/07 11:13:16;;;;;;;0.67;0.53;;;16.60;99.90;;;;;;5093709;28;20456;-77
2022/06/07 11:15:56;;;;;;;0.40;0.40;;;16.60;99.90;;;;;;5094522;28;20105;-79
2022/06/07 11:18:24;;;;;;;2.83;1.42;;;16.60;99.90;;;;;;5094251;28;20519;-73
2022/06/07 11:21:02;;;;;;;0.43;0.43;;;16.60;99.90;;;;;;5094020;28;20047;-78
2022/06/07 11:23:46;;;;;;;0.40;0.40;;;16.50;99.90;;;;;;5093948;28;20052;-73
2022/06/07 11:26:15;;;;;;;0.65;0.65;;;16.50;99.90;;;;;;5094221;28;20051;-74
2022/06/07 11:28:41;;;;;;;0.55;0.55;;;16.50;99.90;;;;;;5093814;28;20046;-77
2022/06/07 11:31:39;;;;;;;1.13;1.03;;;16.50;99.90;;;;;;5093890;28;20122;-74
2022/06/07 11:34:24;;;;;;;0.30;0.30;;;16.70;99.90;;;;;;5095113;28;20040;-74
2022/06/07 11:36:56;;;;;;;2.05;0.82;;;16.90;99.90;;;;;;5100497;28;20101;-75
2022/06/07 11:39:28;;;;;;;0.52;0.52;;;17.00;99.90;;;;;;5100579;28;20517;-74
2022/06/07 11:41:56;;;;;;;1.85;1.65;;;17.20;99.90;;;;;;5100437;28;20495;-75
2022/06/07 11:44:30;;;;;;;0.52;0.52;;;17.20;99.90;;;;;;5100513;28;20043;-74
2022/06/07 11:47:19;;;;;;;0.50;0.50;;;17.30;99.90;;;;;;5100448;28;20480;-74
2022/06/07 11:49:44;;;;;;;0.30;0.30;;;17.40;99.90;;;;;;5100094;28;20048;-77
2022/06/07 11:52:13;;;;;;;0.30;0.30;;;17.60;99.90;;;;;;5100694;28;20040;-75
2022/06/07 11:54:54;;;;;;;0.30;0.30;;;17.80;99.90;;;;;;5100597;28;20040;-76
2022/06/07 11:57:40;;;;;;;0.40;0.40;;;18.00;99.90;;;;;;5100222;28;20476;-75
2022/06/07 12:00:17;;;;;;;0.60;0.60;;;18.10;99.90;;;;;;5100802;28;20089;-74
2022/06/07 12:03:07;;;;;;;0.47;0.47;;;18.00;99.90;;;;;;5100360;28;20052;-74
2022/06/07 12:05:47;;;;;;;0.47;0.47;;;18.00;99.90;;;;;;5100295;28;20062;-75
2022/06/07 12:08:39;;;;;;;0.60;0.60;;;18.00;99.90;;;;;;5100427;28;20094;-78
2022/06/07 12:11:23;;;;;;;0.40;0.40;;;18.00;99.90;;;;;;5100578;28;20063;-76
2022/06/07 12:14:24;;;;;;;0.52;0.52;;;18.10;99.90;;;;;;5100504;28;20068;-76
2022/06/07 12:16:54;;;;;;;0.32;0.32;;;18.30;99.90;;;;;;5100234;28;20051;-74
2022/06/07 12:19:23;;;;;;;0.30;0.30;;;18.40;99.90;;;;;;5100256;28;20035;-78
2022/06/07 12:22:08;;;;;;;0.30;0.30;;;18.50;99.90;;;;;;5100169;28;20048;-73
2022/06/07 12:24:47;;;;;;;0.85;0.75;;;18.50;99.90;;;;;;5100728;28;20373;-76
2022/06/07 12:27:37;;;;;;;0.82;0.82;;;18.40;99.90;;;;;;5100732;28;20047;-75
2022/06/07 12:30:25;;;;;;;3.40;1.85;;;18.20;99.90;;;;;;5100195;28;20434;-77
2022/06/07 12:32:51;;;;;;;0.30;0.30;;;18.20;99.90;;;;;;5100090;28;20039;-74
2022/06/07 12:35:26;;;;;;;0.30;0.30;;;18.20;99.90;;;;;;5100257;28;20105;-74
2022/06/07 12:38:00;;;;;;;0.30;0.30;;;18.50;99.90;;;;;;5098990;28;20044;-78
2022/06/07 12:40:45;;;;;;;0.75;0.50;;;18.50;99.90;;;;;;5100115;28;20361;-78
2022/06/07 12:43:37;;;;;;;0.50;0.50;;;18.60;99.90;;;;;;5099828;28;20044;-77
2022/06/07 12:46:17;;;;;;;1.50;0.80;;;18.70;99.90;;;;;;5098376;28;20048;-75
2022/06/07 12:48:43;;;;;;;0.40;0.40;;;18.60;99.90;;;;;;5096565;28;20488;-79
2022/06/07 12:51:35;;;;;;;0.97;0.40;;;18.60;99.90;;;;;;5096403;28;20051;-72
2022/06/07 12:54:15;;;;;;;0.30;0.30;;;18.30;99.90;;;;;;5096654;28;20040;-73
2022/06/07 12:56:43;;;;;;;1.30;0.75;;;18.40;99.90;;;;;;5096573;28;20043;-72
2022/06/07 12:59:17;;;;;;;0.65;0.60;;;18.50;99.90;;;;;;5096516;28;20122;-76
2022/06/07 13:01:46;;;;;;;0.30;0.30;;;18.40;99.90;;;;;;5096459;28;20055;-75
2022/06/07 13:04:36;;;;;;;0.30;0.30;;;18.40;99.90;;;;;;5096314;28;20059;-73
2022/06/07 13:07:24;;;;;;;0.47;0.30;;;18.70;99.90;;;;;;5096902;28;20055;-75
2022/06/07 13:09:58;;;;;;;0.60;0.60;;;18.70;99.90;;;;;;5096389;28;20498;-76
2022/06/07 13:12:42;;;;;;;0.40;0.40;;;18.70;99.90;;;;;;5095977;28;20060;-77
2022/06/07 13:15:24;;;;;;;0.30;0.30;;;18.60;99.90;;;;;;5095608;28;20381;-74
2022/06/07 13:17:55;;;;;;;0.30;0.30;;;18.50;99.90;;;;;;5096137;28;20036;-76
2022/06/07 13:20:34;;;;;;;0.30;0.30;;;18.40;99.90;;;;;;5096128;28;20050;-73
2022/06/07 13:23:00;;;;;;;0.30;0.30;;;18.40;99.90;;;;;;5096051;28;20178;-76
2022/06/07 13:25:31;;;;;;;0.45;0.40;;;18.40;99.90;;;;;;5096007;28;20048;-73
2022/06/07 13:28:17;;;;;;;0.40;0.40;;;18.30;99.90;;;;;;5096034;28;20051;-77
2022/06/07 13:30:45;;;;;;;0.50;0.50;;;18.30;99.90;;;;;;5096140;28;20043;-78
2022/06/07 13:33:25;;;;;;;0.40;0.40;;;18.50;99.90;;;;;;5095902;28;20040;-75
2022/06/07 13:36:06;;;;;;;1.27;0.88;;;18.70;99.90;;;;;;5095588;28;20503;-74